Terminal Aerodrome Forecast
Issued by NWS

Current Version | Previous Version | Text Only | Print | Product List | Glossary Off
Versions: 1 2 3 4 5 6 7 8 9 10 11 12 13 14 15 16 17 18 19

000
FTUS41 KILN 142000 AAB
TAFLUK
TAF AMD
KLUK 142014Z 1420/1518 23011KT P6SM VCSH SCT025 OVC050
      TEMPO 1420/1422 BKN025
     FM142200 28008KT P6SM OVC018
     FM150100 32010G18KT 5SM -RA BR OVC012
     FM150500 34018G28KT 5SM -RASN BR OVC012
     FM150700 33018G26KT 2SM -SN BR OVC009
     FM151100 33015G25KT P6SM OVC025
     FM151500 32015G24KT P6SM SCT025
     FM151700 32015G22KT P6SM BKN040=

USA.gov is the U.S. government's official web portal to all federal, state and local government web resources and services.